Time;durP1;ratioP1;P1;durP2;ratioP2;P2;SDS_P1;SDS_P2;PMS_P1;PMS_P2;Temp;Humidity;BMP_temperature;BMP_pressure;BME280_temperature;BME280_humidity;BME280_pressure;Samples;Min_cycle;Max_cycle;Signal;HPM_P1;HPM_P2
2022/03/04 00:01:56;;;;;;;0.20;0.20;;;;;;;20.00;34.22;101536.59;5117799;28;20050;-36
2022/03/04 00:04:22;;;;;;;0.20;0.20;;;;;;;20.00;34.19;101542.13;5119314;28;20050;-34
2022/03/04 00:06:49;;;;;;;0.20;0.20;;;;;;;19.99;34.29;101534.91;5117901;28;20043;-34
2022/03/04 00:09:15;;;;;;;0.20;0.20;;;;;;;19.98;34.03;101539.63;5120604;28;20043;-36
2022/03/04 00:11:41;;;;;;;0.20;0.20;;;;;;;19.97;34.34;101540.72;5101122;28;20135;-35
2022/03/04 00:14:07;;;;;;;0.20;0.20;;;;;;;19.97;34.21;101540.72;5102981;28;20075;-38
2022/03/04 00:16:32;;;;;;;0.20;0.20;;;;;;;19.98;34.20;101541.56;5121993;27;20035;-32
2022/03/04 00:19:13;;;;;;;0.20;0.20;;;;;;;19.97;34.18;101539.91;5100926;28;20158;-36
2022/03/04 00:21:42;;;;;;;0.20;0.20;;;;;;;19.97;34.17;101543.47;5118628;28;20047;-37
2022/03/04 00:24:09;;;;;;;0.20;0.20;;;;;;;19.97;34.47;101537.97;5122279;27;20123;-36
2022/03/04 00:26:35;;;;;;;0.20;0.20;;;;;;;19.98;34.29;101544.31;5122477;28;20039;-33
2022/03/04 00:29:01;;;;;;;0.20;0.20;;;;;;;19.98;34.18;101547.06;5120256;28;20531;-35
2022/03/04 00:31:27;;;;;;;0.20;0.20;;;;;;;19.97;34.27;101542.66;5101055;28;20043;-39
2022/03/04 00:33:53;;;;;;;0.20;0.20;;;;;;;19.97;34.18;101548.19;5101985;28;20406;-33
2022/03/04 00:36:23;;;;;;;0.20;0.20;;;;;;;19.96;34.46;101550.13;5114168;28;20040;-33
2022/03/04 00:38:51;;;;;;;0.20;0.20;;;;;;;19.98;34.26;101547.91;5118564;28;20117;-36
2022/03/04 00:41:18;;;;;;;0.20;0.20;;;;;;;19.96;34.16;101552.88;5118820;28;20424;-35
2022/03/04 00:43:44;;;;;;;0.20;0.20;;;;;;;19.94;34.18;101554.25;5119559;28;20051;-34
2022/03/04 00:46:10;;;;;;;0.20;0.20;;;;;;;19.96;34.12;101558.41;5120945;28;20047;-34
2022/03/04 00:48:36;;;;;;;0.20;0.20;;;;;;;19.96;34.44;101565.88;5115936;28;20044;-37
2022/03/04 00:51:02;;;;;;;0.20;0.20;;;;;;;19.96;34.26;101574.19;5118173;28;20043;-37
2022/03/04 00:53:28;;;;;;;0.20;0.20;;;;;;;19.94;34.47;101568.91;5119011;28;20304;-37
2022/03/04 00:55:53;;;;;;;0.20;0.20;;;;;;;19.97;34.12;101573.06;5121746;28;20152;-35
2022/03/04 00:58:19;;;;;;;0.20;0.20;;;;;;;19.96;34.41;101577.78;5122008;28;20513;-33
2022/03/04 01:00:45;;;;;;;0.20;0.20;;;;;;;19.95;34.47;101576.13;5118410;28;20043;-33
2022/03/04 01:03:11;;;;;;;0.20;0.20;;;;;;;19.96;34.43;101574.19;5099865;28;20055;-37
2022/03/04 01:05:37;;;;;;;0.20;0.20;;;;;;;19.94;34.50;101576.38;5120375;28;20052;-34
2022/03/04 01:08:03;;;;;;;0.20;0.20;;;;;;;19.94;34.41;101573.59;5100782;28;20043;-34
2022/03/04 01:10:29;;;;;;;0.20;0.20;;;;;;;19.95;34.56;101578.06;5120569;28;20100;-36
2022/03/04 01:12:55;;;;;;;0.20;0.20;;;;;;;19.94;34.17;101584.66;5100027;28;20168;-36
2022/03/04 01:15:20;;;;;;;0.20;0.20;;;;;;;19.94;34.52;101581.91;5119795;28;20043;-37
2022/03/04 01:17:46;;;;;;;0.20;0.20;;;;;;;19.94;34.34;101581.91;5116145;28;20044;-35
2022/03/04 01:20:12;;;;;;;0.20;0.20;;;;;;;19.93;34.18;101583.84;5088589;28;20054;-34
2022/03/04 01:22:37;;;;;;;0.20;0.20;;;;;;;19.94;34.28;101584.66;5102555;28;20047;-37
2022/03/04 01:25:03;;;;;;;0.20;0.20;;;;;;;19.95;34.48;101580.81;5121491;27;20043;-34
2022/03/04 01:27:29;;;;;;;0.20;0.20;;;;;;;19.94;34.23;101574.44;5117105;28;20047;-38
2022/03/04 01:29:55;;;;;;;0.20;0.20;;;;;;;19.93;34.28;101575.53;5118503;27;20052;-31
2022/03/04 01:32:20;;;;;;;0.20;0.20;;;;;;;19.92;34.38;101564.75;5116173;28;20048;-37
2022/03/04 01:34:46;;;;;;;0.20;0.20;;;;;;;19.91;34.44;101569.47;5123417;28;20043;-36
2022/03/04 01:37:12;;;;;;;0.20;0.20;;;;;;;19.92;34.23;101565.59;5121540;28;20051;-37
2022/03/04 01:39:37;;;;;;;0.20;0.20;;;;;;;19.91;34.69;101560.34;5124554;28;20503;-37
2022/03/04 01:42:03;;;;;;;0.20;0.20;;;;;;;19.92;34.40;101560.06;5120528;28;20309;-34
2022/03/04 01:44:29;;;;;;;0.20;0.20;;;;;;;19.93;34.40;101566.41;5118522;28;20345;-36
2022/03/04 01:46:55;;;;;;;0.20;0.20;;;;;;;19.92;34.35;101553.72;5123203;28;20145;-39
2022/03/04 01:49:21;;;;;;;0.20;0.20;;;;;;;19.91;34.37;101555.63;5121744;28;20089;-37
2022/03/04 01:51:47;;;;;;;0.20;0.20;;;;;;;19.92;34.11;101571.13;5120350;28;20446;-33
2022/03/04 01:54:12;;;;;;;0.20;0.20;;;;;;;19.91;34.53;101566.69;5103055;28;20070;-33
2022/03/04 01:56:38;;;;;;;0.20;0.20;;;;;;;19.91;34.37;101565.88;5122941;28;20489;-36
2022/03/04 01:59:04;;;;;;;0.20;0.20;;;;;;;19.90;34.48;101558.66;5124039;28;20047;-33
2022/03/04 02:01:30;;;;;;;0.20;0.20;;;;;;;19.92;34.27;101559.22;5118018;28;20059;-34
2022/03/04 02:03:56;;;;;;;0.20;0.20;;;;;;;19.90;34.50;101559.47;5101464;28;20509;-32
2022/03/04 02:06:21;;;;;;;0.20;0.20;;;;;;;19.91;34.51;101560.34;5123732;28;20059;-32
2022/03/04 02:08:47;;;;;;;0.20;0.20;;;;;;;19.89;34.62;101557.00;5098567;28;20044;-34
2022/03/04 02:11:13;;;;;;;0.20;0.20;;;;;;;19.91;34.50;101560.34;5119660;28;20043;-33
2022/03/04 02:13:39;;;;;;;0.20;0.20;;;;;;;19.90;34.62;101556.72;5122525;28;20478;-32
2022/03/04 02:16:18;;;;;;;0.20;0.20;;;;;;;19.89;34.48;101559.75;5121843;28;20429;-34
2022/03/04 02:18:44;;;;;;;0.20;0.20;;;;;;;19.90;34.57;101559.47;5105074;28;20051;-33
2022/03/04 02:21:13;;;;;;;0.20;0.20;;;;;;;19.90;34.45;101561.41;5116030;28;20096;-34
2022/03/04 02:23:38;;;;;;;;;;;;;;;19.90;34.53;101556.72;5099967;28;20107;-36
2022/03/04 02:26:04;;;;;;;0.20;0.20;;;;;;;19.90;34.45;101564.19;5102042;28;19919;-35
2022/03/04 02:28:29;;;;;;;0.20;0.20;;;;;;;19.87;34.60;101560.03;5122818;28;20043;-33
2022/03/04 02:30:56;;;;;;;0.20;0.20;;;;;;;19.88;34.53;101556.16;5121004;28;20161;-34
2022/03/04 02:33:22;;;;;;;0.20;0.20;;;;;;;19.87;34.58;101560.03;5117776;28;20062;-34
2022/03/04 02:35:48;;;;;;;0.20;0.20;;;;;;;19.87;34.27;101551.75;5121071;28;20625;-35
2022/03/04 02:38:13;;;;;;;0.20;0.20;;;;;;;19.87;34.52;101557.28;5121490;28;20095;-35
2022/03/04 02:40:39;;;;;;;0.20;0.20;;;;;;;19.86;34.37;101550.09;5100928;28;20337;-39
2022/03/04 02:43:05;;;;;;;0.20;0.20;;;;;;;19.88;34.27;101550.66;5119271;28;20050;-34
2022/03/04 02:45:31;;;;;;;0.20;0.20;;;;;;;19.88;34.44;101552.59;5101682;28;20043;-37
2022/03/04 02:47:57;;;;;;;0.20;0.20;;;;;;;19.87;34.60;101551.75;5102073;28;20047;-39
2022/03/04 02:50:22;;;;;;;0.20;0.20;;;;;;;19.87;34.48;101550.94;5119028;28;20046;-33
2022/03/04 02:52:48;;;;;;;0.20;0.20;;;;;;;19.86;34.45;101552.00;5119971;28;20096;-38
2022/03/04 02:55:14;;;;;;;0.20;0.20;;;;;;;19.85;34.62;101551.19;5117550;28;20496;-33
2022/03/04 02:57:42;;;;;;;0.20;0.20;;;;;;;19.86;34.28;101547.34;5124320;28;20047;-40
2022/03/04 03:00:08;;;;;;;;;;;;;;;19.86;34.29;101547.34;5121161;28;20499;-34
2022/03/04 03:02:34;;;;;;;0.20;0.20;;;;;;;19.84;34.48;101538.47;5118597;28;21085;-36
2022/03/04 03:05:00;;;;;;;0.20;0.20;;;;;;;19.85;34.54;101542.88;5103328;28;20047;-31
2022/03/04 03:07:25;;;;;;;0.20;0.20;;;;;;;19.86;34.40;101544.56;5117779;28;20675;-34
2022/03/04 03:09:51;;;;;;;0.20;0.20;;;;;;;19.86;34.62;101541.81;5122199;28;20047;-35
2022/03/04 03:12:17;;;;;;;0.20;0.20;;;;;;;19.85;34.38;101544.81;5119268;28;20479;-38
2022/03/04 03:14:42;;;;;;;0.20;0.20;;;;;;;19.85;34.72;101548.41;5121868;28;20406;-35
2022/03/04 03:17:08;;;;;;;0.20;0.20;;;;;;;19.85;34.38;101542.06;5122172;28;20504;-39
2022/03/04 03:19:33;;;;;;;0.20;0.20;;;;;;;19.85;34.65;101547.59;5120708;28;20065;-38
2022/03/04 03:21:59;;;;;;;0.20;0.20;;;;;;;19.84;34.70;101541.22;5119102;28;20058;-39
2022/03/04 03:24:25;;;;;;;0.20;0.20;;;;;;;19.85;34.39;101536.53;5118584;27;20052;-34
2022/03/04 03:26:50;;;;;;;0.20;0.20;;;;;;;19.86;34.36;101538.19;5120364;28;20078;-34
2022/03/04 03:29:16;;;;;;;0.20;0.20;;;;;;;19.84;34.67;101530.19;5119661;28;20047;-36
2022/03/04 03:31:42;;;;;;;0.20;0.20;;;;;;;19.84;34.37;101543.16;5121329;28;20039;-34
2022/03/04 03:34:08;;;;;;;0.20;0.20;;;;;;;19.84;34.47;101543.16;5122841;28;20054;-34
2022/03/04 03:36:34;;;;;;;0.20;0.20;;;;;;;19.84;34.37;101537.63;5119260;28;20087;-38
2022/03/04 03:38:59;;;;;;;0.20;0.20;;;;;;;19.84;34.56;101541.22;5123172;28;20039;-36
2022/03/04 03:41:25;;;;;;;0.20;0.20;;;;;;;19.84;34.55;101544.00;5117748;28;20043;-34
2022/03/04 03:43:52;;;;;;;0.20;0.20;;;;;;;19.84;34.76;101543.16;5119900;28;20051;-37
2022/03/04 03:46:18;;;;;;;0.20;0.20;;;;;;;19.83;34.70;101547.03;5117117;28;20051;-35
2022/03/04 03:48:44;;;;;;;0.20;0.20;;;;;;;19.83;34.38;101545.09;5117988;28;20046;-31
2022/03/04 03:51:10;;;;;;;0.20;0.20;;;;;;;19.85;34.63;101551.19;5118130;28;20058;-34
2022/03/04 03:53:36;;;;;;;0.20;0.20;;;;;;;19.83;34.64;101553.41;5102616;28;20515;-35
2022/03/04 03:56:01;;;;;;;0.20;0.20;;;;;;;19.83;34.68;101544.28;5084537;28;20065;-37
2022/03/04 03:58:27;;;;;;;0.20;0.20;;;;;;;19.84;34.33;101557.81;5116804;28;20595;-32
2022/03/04 04:00:53;;;;;;;0.20;0.20;;;;;;;19.83;34.47;101552.56;5119594;28;20070;-34
2022/03/04 04:03:19;;;;;;;0.20;0.20;;;;;;;19.83;34.72;101558.09;5122568;28;20186;-33
2022/03/04 04:05:44;;;;;;;0.20;0.20;;;;;;;19.83;34.46;101564.44;5120586;28;20435;-32
2022/03/04 04:08:10;;;;;;;0.20;0.20;;;;;;;19.82;34.39;101554.50;5120323;28;20059;-31
2022/03/04 04:10:36;;;;;;;0.20;0.20;;;;;;;19.83;34.30;101564.44;5119274;28;20043;-37
2022/03/04 04:13:01;;;;;;;0.20;0.20;;;;;;;19.82;34.60;101562.78;5121665;28;20088;-34
2022/03/04 04:15:27;;;;;;;0.20;0.20;;;;;;;19.81;34.50;101563.88;5119827;28;20047;-38
2022/03/04 04:17:53;;;;;;;0.20;0.20;;;;;;;19.81;34.67;101566.63;5118714;28;20043;-34
2022/03/04 04:20:19;;;;;;;0.20;0.20;;;;;;;19.82;34.65;101564.69;5118621;28;20387;-37
2022/03/04 04:22:45;;;;;;;0.20;0.20;;;;;;;19.82;34.68;101567.47;5096916;28;20462;-35
2022/03/04 04:25:11;;;;;;;0.20;0.20;;;;;;;19.82;34.56;101559.16;5122948;28;20043;-36
2022/03/04 04:27:36;;;;;;;0.20;0.20;;;;;;;19.81;34.63;101566.63;5099960;28;20043;-34
2022/03/04 04:30:03;;;;;;;0.20;0.20;;;;;;;19.82;34.56;101578.53;5117989;28;20043;-35
2022/03/04 04:32:29;;;;;;;0.20;0.20;;;;;;;19.82;34.57;101573.00;5120482;28;20390;-37
2022/03/04 04:34:54;;;;;;;0.20;0.20;;;;;;;19.81;34.69;101572.16;5120308;28;20047;-35
2022/03/04 04:37:20;;;;;;;0.20;0.20;;;;;;;19.82;34.68;101578.53;5116377;28;20089;-36
2022/03/04 04:39:46;;;;;;;0.20;0.20;;;;;;;19.80;34.50;101578.81;5120831;28;20046;-33
2022/03/04 04:42:11;;;;;;;0.20;0.20;;;;;;;19.80;34.73;101585.16;5117756;28;20046;-35
2022/03/04 04:44:37;;;;;;;0.20;0.20;;;;;;;19.81;34.79;101585.97;5100832;28;20475;-35
2022/03/04 04:47:03;;;;;;;0.20;0.20;;;;;;;19.79;34.77;101583.50;5120094;28;20051;-39
2022/03/04 04:49:29;;;;;;;0.20;0.20;;;;;;;19.80;34.50;101581.56;5120654;28;20052;-37
2022/03/04 04:51:55;;;;;;;0.20;0.20;;;;;;;19.80;34.58;101585.16;5118419;28;20043;-36
2022/03/04 04:54:20;;;;;;;0.20;0.20;;;;;;;19.81;34.47;101585.97;5124098;28;20466;-33
2022/03/04 04:56:46;;;;;;;0.20;0.20;;;;;;;19.80;34.39;101587.09;5121638;28;20051;-35
2022/03/04 04:59:12;;;;;;;0.20;0.20;;;;;;;19.80;34.84;101587.09;5123107;28;20160;-35
2022/03/04 05:01:37;;;;;;;0.20;0.20;;;;;;;19.79;34.45;101580.75;5120238;28;20039;-36
2022/03/04 05:04:03;;;;;;;0.20;0.20;;;;;;;19.79;34.47;101588.19;5122465;27;20051;-37
2022/03/04 05:06:29;;;;;;;0.20;0.20;;;;;;;19.79;34.68;101591.78;5123734;28;20435;-34
2022/03/04 05:08:57;;;;;;;;;;;;;;;19.78;34.48;101587.38;5124368;28;20619;-40
2022/03/04 05:11:23;;;;;;;0.20;0.20;;;;;;;19.78;34.76;101578.25;5120039;28;19920;-37
2022/03/04 05:13:48;;;;;;;0.20;0.20;;;;;;;19.78;34.48;101592.91;5122005;28;20119;-36
2022/03/04 05:16:14;;;;;;;0.20;0.20;;;;;;;19.78;34.77;101586.53;5125015;28;20045;-34
2022/03/04 05:18:40;;;;;;;0.20;0.20;;;;;;;19.79;34.50;101596.50;5105714;28;20447;-34
2022/03/04 05:21:06;;;;;;;0.20;0.20;;;;;;;19.78;34.59;101589.31;5120750;28;20046;-37
2022/03/04 05:24:02;;;;;;;0.20;0.20;;;;;;;19.78;34.50;101598.44;5120626;28;20043;-36
2022/03/04 05:26:17;;;;;;;0.20;0.20;;;;;;;19.78;34.55;101603.13;5107051;28;20086;-39
2022/03/04 05:28:42;;;;;;;0.20;0.20;;;;;;;19.76;34.53;101599.78;5122484;28;20047;-37
2022/03/04 05:31:08;;;;;;;0.20;0.20;;;;;;;19.77;34.93;101596.78;5120396;28;21253;-33
2022/03/04 05:33:34;;;;;;;0.20;0.20;;;;;;;19.77;34.71;101613.34;5123879;28;20385;-34
2022/03/04 05:36:00;;;;;;;0.20;0.20;;;;;;;19.77;34.78;101606.97;5123472;28;20051;-34
2022/03/04 05:38:25;;;;;;;0.20;0.20;;;;;;;19.77;34.40;101607.81;5121879;28;21193;-37
2022/03/04 05:40:51;;;;;;;0.20;0.20;;;;;;;19.77;34.74;101598.66;5119588;28;20047;-37
2022/03/04 05:43:17;;;;;;;0.20;0.20;;;;;;;19.78;34.74;101603.94;5119229;28;20787;-38
2022/03/04 05:45:42;;;;;;;0.20;0.20;;;;;;;19.78;34.49;101605.88;5119467;28;20217;-38
2022/03/04 05:48:08;;;;;;;0.20;0.20;;;;;;;19.78;34.76;101611.41;5120529;28;20043;-38
2022/03/04 05:50:34;;;;;;;0.20;0.20;;;;;;;19.78;34.44;101622.47;5122084;28;20435;-33
2022/03/04 05:53:00;;;;;;;0.20;0.20;;;;;;;19.76;34.55;101622.72;5118705;28;20051;-37
2022/03/04 05:55:26;;;;;;;0.20;0.20;;;;;;;19.76;34.52;101619.13;5122370;28;20075;-35
2022/03/04 05:57:51;;;;;;;0.20;0.20;;;;;;;19.77;34.68;101618.03;5124428;28;20112;-37
2022/03/04 06:00:17;;;;;;;0.20;0.20;;;;;;;19.78;34.65;101630.75;5122623;28;20382;-33
2022/03/04 06:02:43;;;;;;;0.20;0.20;;;;;;;19.77;34.78;101626.31;5121056;28;20051;-34
2022/03/04 06:05:09;;;;;;;0.20;0.20;;;;;;;19.76;34.70;101631.00;5121328;28;20116;-34
2022/03/04 06:07:35;;;;;;;0.20;0.20;;;;;;;19.75;34.66;101634.06;5121246;28;20165;-35
2022/03/04 06:10:02;;;;;;;0.20;0.20;;;;;;;19.75;34.51;101634.88;5121173;28;20085;-33
2022/03/04 06:12:28;;;;;;;0.20;0.20;;;;;;;19.76;34.84;101633.78;5118460;28;20097;-35
2022/03/04 06:14:54;;;;;;;0.20;0.20;;;;;;;19.75;34.62;101634.06;5119342;27;20474;-37
2022/03/04 06:17:19;;;;;;;0.20;0.20;;;;;;;19.76;34.54;101642.06;5120947;28;20145;-36
2022/03/04 06:19:45;;;;;;;0.20;0.20;;;;;;;19.73;32.70;101634.34;5120788;28;20047;-36
2022/03/04 06:22:11;;;;;;;0.20;0.20;;;;;;;19.69;33.09;101641.50;5121643;27;20452;-34
2022/03/04 06:24:39;;;;;;;0.20;0.20;;;;;;;19.76;33.40;101631.00;5124231;28;20043;-34
2022/03/04 06:27:05;;;;;;;;;;;;;;;19.79;33.61;101640.72;5119845;27;20124;-36
2022/03/04 06:29:31;;;;;;;0.20;0.20;;;;;;;19.77;33.97;101640.13;5104977;28;21479;-33
2022/03/04 06:31:56;;;;;;;0.20;0.20;;;;;;;19.79;34.03;101636.00;5116443;28;20520;-38
2022/03/04 06:34:22;;;;;;;0.28;0.28;;;;;;;19.78;33.91;101639.88;5118109;28;20174;-33
2022/03/04 06:36:48;;;;;;;0.20;0.20;;;;;;;19.72;33.16;101649.22;5119886;28;20088;-35
2022/03/04 06:39:13;;;;;;;0.20;0.20;;;;;;;19.82;33.50;101654.00;5120816;28;20051;-34
2022/03/04 06:41:39;;;;;;;0.20;0.20;;;;;;;19.85;33.65;101658.16;5118196;27;20048;-33
2022/03/04 06:44:05;;;;;;;0.20;0.20;;;;;;;19.86;33.44;101663.44;5124441;28;20058;-37
2022/03/04 06:46:30;;;;;;;0.20;0.20;;;;;;;19.82;31.18;101662.28;5121645;28;20047;-36
2022/03/04 06:48:56;;;;;;;0.35;0.35;;;;;;;19.78;32.12;101658.41;5119075;28;20454;-34
2022/03/04 06:51:22;;;;;;;0.20;0.20;;;;;;;19.88;32.65;101654.84;5112907;28;20583;-33
2022/03/04 06:53:47;;;;;;;0.20;0.20;;;;;;;19.89;33.15;101664.81;5103474;28;20201;-33
2022/03/04 06:56:16;;;;;;;0.20;0.20;;;;;;;19.91;32.63;101668.97;5116678;28;20039;-35
2022/03/04 06:58:41;;;;;;;;;;;;;;;19.92;32.71;101670.63;5096057;28;20071;-34
2022/03/04 07:01:07;;;;;;;0.20;0.20;;;;;;;19.94;32.76;101678.66;5113962;28;20374;-34
2022/03/04 07:03:33;;;;;;;0.20;0.20;;;;;;;19.95;33.15;101672.03;5106801;28;20047;-36
2022/03/04 07:06:00;;;;;;;0.20;0.20;;;;;;;19.94;33.16;101676.72;5112398;27;20039;-33
2022/03/04 07:08:25;;;;;;;0.20;0.20;;;;;;;19.96;33.02;101682.00;5115236;28;20085;-35
2022/03/04 07:10:51;;;;;;;0.20;0.20;;;;;;;19.92;31.45;101681.69;5118345;27;20055;-35
2022/03/04 07:13:19;;;;;;;0.20;0.20;;;;;;;20.01;32.92;101682.03;5119007;27;20043;-37
2022/03/04 07:15:45;;;;;;;0.20;0.20;;;;;;;20.04;32.55;101693.38;5120809;28;20622;-34
2022/03/04 07:18:11;;;;;;;0.20;0.20;;;;;;;20.04;32.77;101693.38;5103354;28;20666;-34
2022/03/04 07:20:36;;;;;;;0.20;0.20;;;;;;;20.07;32.92;101691.16;5104325;28;20039;-37
2022/03/04 07:23:03;;;;;;;0.20;0.20;;;;;;;20.06;32.76;101687.56;5113183;27;20055;-33
2022/03/04 07:25:29;;;;;;;0.20;0.20;;;;;;;20.07;33.26;101689.22;5090025;28;21242;-35
2022/03/04 07:27:55;;;;;;;0.20;0.20;;;;;;;20.09;32.87;101692.56;5118742;27;20133;-34
2022/03/04 07:30:20;;;;;;;0.22;0.22;;;;;;;20.10;32.95;101697.00;5119777;28;20058;-40
2022/03/04 07:32:46;;;;;;;0.20;0.20;;;;;;;20.11;33.27;101693.13;5115650;27;20200;-35
2022/03/04 07:35:12;;;;;;;0.20;0.20;;;;;;;20.13;33.14;101693.69;5115426;28;20058;-35
2022/03/04 07:37:40;;;;;;;0.20;0.20;;;;;;;20.14;33.31;101697.28;5098436;28;20116;-37
2022/03/04 07:40:09;;;;;;;0.20;0.20;;;;;;;20.14;33.15;101697.28;5100202;28;20159;-36
2022/03/04 07:42:34;;;;;;;0.20;0.20;;;;;;;20.15;33.08;101707.25;5092324;28;20110;-35
2022/03/04 07:45:00;;;;;;;0.20;0.20;;;;;;;20.17;33.10;101696.78;5097328;28;21124;-37
2022/03/04 07:47:26;;;;;;;0.20;0.20;;;;;;;20.17;33.07;101696.78;5111685;28;20138;-35
2022/03/04 07:49:51;;;;;;;0.20;0.20;;;;;;;20.20;33.12;101701.75;5108018;27;20062;-36
2022/03/04 07:52:17;;;;;;;0.20;0.20;;;;;;;20.19;33.26;101697.31;5115915;28;20043;-34
2022/03/04 07:54:43;;;;;;;0.20;0.20;;;;;;;20.19;33.39;101698.16;5093824;28;20039;-39
2022/03/04 07:57:09;;;;;;;0.20;0.20;;;;;;;20.20;33.10;101693.44;5090550;28;20090;-37
2022/03/04 07:59:35;;;;;;;0.20;0.20;;;;;;;20.20;33.14;101699.81;5115613;27;20066;-37
2022/03/04 08:02:00;;;;;;;0.20;0.20;;;;;;;20.21;33.09;101706.19;5106941;28;20040;-37
2022/03/04 08:04:26;;;;;;;0.20;0.20;;;;;;;20.22;33.12;101700.38;5088152;28;20641;-38
2022/03/04 08:06:52;;;;;;;0.20;0.20;;;;;;;20.14;31.36;101706.41;5102298;28;20039;-39
2022/03/04 08:09:18;;;;;;;0.20;0.20;;;;;;;19.93;29.19;101708.22;5110276;27;20088;-38
2022/03/04 08:11:44;;;;;;;0.20;0.20;;;;;;;20.04;30.64;101711.91;5110919;27;20042;-38
2022/03/04 08:14:10;;;;;;;0.20;0.20;;;;;;;20.19;31.61;101713.91;5104137;27;20074;-37
2022/03/04 08:16:36;;;;;;;0.20;0.20;;;;;;;20.24;31.10;101706.47;5088468;28;20409;-45
2022/03/04 08:19:03;;;;;;;0.20;0.20;;;;;;;20.21;30.70;101708.97;5084001;28;20051;-34
2022/03/04 08:21:29;;;;;;;0.20;0.20;;;;;;;20.30;30.69;101718.41;5088056;27;20078;-35
2022/03/04 08:23:55;;;;;;;0.20;0.20;;;;;;;20.25;28.91;101718.34;5084466;28;20046;-41
2022/03/04 08:26:20;;;;;;;0.20;0.20;;;;;;;20.29;30.72;101719.47;5090346;27;20058;-33
2022/03/04 08:28:46;;;;;;;0.20;0.20;;;;;;;20.37;30.83;101721.75;5109562;28;20189;-37
2022/03/04 08:31:12;;;;;;;0.20;0.20;;;;;;;20.39;30.97;101715.97;5083447;28;20595;-37
2022/03/04 08:33:40;;;;;;;0.20;0.20;;;;;;;20.39;30.65;101727.03;5111247;28;20047;-33
2022/03/04 08:36:05;;;;;;;0.20;0.20;;;;;;;20.38;30.90;101726.19;5100284;27;20770;-34
2022/03/04 08:38:32;;;;;;;0.20;0.20;;;;;;;20.45;30.93;101724.00;5111385;28;20055;-32
2022/03/04 08:40:58;;;;;;;0.20;0.20;;;;;;;20.45;31.04;101735.06;5111275;27;20270;-37
2022/03/04 08:43:24;;;;;;;0.20;0.20;;;;;;;20.47;31.16;101729.28;5110804;27;20062;-36
2022/03/04 08:45:50;;;;;;;0.20;0.20;;;;;;;20.46;31.23;101727.59;5110314;28;20051;-38
2022/03/04 08:48:15;;;;;;;0.20;0.20;;;;;;;20.47;31.26;101730.09;5116694;27;20054;-34
2022/03/04 08:50:41;;;;;;;0.20;0.20;;;;;;;20.47;31.39;101732.88;5104243;27;20306;-40
2022/03/04 08:53:07;;;;;;;0.20;0.20;;;;;;;20.49;31.51;101727.09;5117711;27;20070;-39
2022/03/04 08:55:33;;;;;;;0.20;0.20;;;;;;;20.48;31.50;101725.44;5098447;28;20099;-41
2022/03/04 08:58:00;;;;;;;0.20;0.20;;;;;;;20.50;31.70;101723.22;5112927;28;20226;-33
2022/03/04 09:00:27;;;;;;;0.20;0.20;;;;;;;20.50;31.88;101735.09;5092675;27;20461;-37
2022/03/04 09:02:53;;;;;;;0.20;0.20;;;;;;;20.51;32.05;101719.38;5107585;28;20078;-33
2022/03/04 09:05:19;;;;;;;0.20;0.20;;;;;;;20.38;28.58;101720.66;5111570;28;20508;-39
2022/03/04 09:07:44;;;;;;;0.20;0.20;;;;;;;20.38;29.66;101728.97;5115124;28;20359;-36
2022/03/04 09:10:11;;;;;;;0.20;0.20;;;;;;;20.50;30.01;101728.75;5113358;28;20062;-35
2022/03/04 09:12:37;;;;;;;0.20;0.20;;;;;;;20.52;30.27;101730.16;5091805;28;20117;-37
2022/03/04 09:15:04;;;;;;;0.20;0.20;;;;;;;20.53;30.46;101725.44;5122416;28;20175;-40
2022/03/04 09:17:29;;;;;;;0.20;0.20;;;;;;;20.54;30.72;101735.41;5115605;28;20065;-38
2022/03/04 09:19:55;;;;;;;0.10;0.10;;;;;;;20.57;30.45;101729.34;5097608;27;20043;-36
2022/03/04 09:22:24;;;;;;;0.10;0.10;;;;;;;20.56;31.00;101727.69;5115321;28;20047;-37
2022/03/04 09:24:49;;;;;;;0.20;0.20;;;;;;;20.57;31.12;101729.34;5117470;28;20624;-35
2022/03/04 09:27:15;;;;;;;0.20;0.20;;;;;;;20.59;31.12;101729.88;5115345;28;20054;-36
2022/03/04 09:29:41;;;;;;;0.20;0.20;;;;;;;20.58;31.17;101733.75;5116193;28;20088;-34
2022/03/04 09:32:06;;;;;;;0.20;0.20;;;;;;;20.60;31.16;101741.81;5114519;28;20075;-40
2022/03/04 09:34:32;;;;;;;0.20;0.20;;;;;;;20.60;31.13;101742.63;5118111;28;20466;-36
2022/03/04 09:36:58;;;;;;;0.20;0.20;;;;;;;20.59;31.63;101735.41;5111269;28;20138;-35
2022/03/04 09:39:24;;;;;;;0.13;0.13;;;;;;;20.60;31.81;101739.88;5110369;28;20043;-40
2022/03/04 09:41:50;;;;;;;0.20;0.20;;;;;;;20.61;31.32;101747.06;5113906;28;20039;-40
2022/03/04 09:44:15;;;;;;;0.20;0.20;;;;;;;20.62;31.47;101739.59;5115054;28;20066;-37
2022/03/04 09:46:42;;;;;;;0.20;0.20;;;;;;;20.61;31.43;101730.47;5090203;28;20047;-38
2022/03/04 09:49:09;;;;;;;0.20;0.20;;;;;;;20.62;31.57;101731.28;5098486;27;20062;-40
2022/03/04 09:51:34;;;;;;;0.20;0.20;;;;;;;20.63;31.68;101735.72;5096184;28;20043;-34
2022/03/04 09:54:01;;;;;;;0.20;0.20;;;;;;;20.64;31.43;101726.28;5117739;28;20055;-36
2022/03/04 09:56:26;;;;;;;0.20;0.20;;;;;;;20.64;31.46;101737.38;5077872;28;20067;-39
2022/03/04 09:58:52;;;;;;;0.20;0.20;;;;;;;20.64;31.79;101732.69;5115443;28;20050;-36
2022/03/04 10:01:21;;;;;;;0.20;0.20;;;;;;;20.64;31.49;101738.22;5095562;28;20627;-34
2022/03/04 10:03:49;;;;;;;0.20;0.20;;;;;;;20.65;31.59;101733.53;5119232;28;20050;-37
2022/03/04 10:06:16;;;;;;;0.10;0.10;;;;;;;20.66;31.87;101737.94;5081764;28;20070;-40
2022/03/04 10:08:45;;;;;;;0.20;0.20;;;;;;;20.65;31.87;101737.13;5098502;28;20454;-36
2022/03/04 10:11:11;;;;;;;0.20;0.20;;;;;;;20.66;31.99;101736.00;5097517;28;20082;-40
2022/03/04 10:13:47;;;;;;;0.20;0.20;;;;;;;20.65;32.08;101720.50;5100930;28;20043;-37
2022/03/04 10:16:21;;;;;;;0.20;0.20;;;;;;;20.65;31.73;101717.75;5096414;28;20518;-38
2022/03/04 10:22:03;;;;;;;0.20;0.20;;;;;;;20.67;31.83;101717.47;5150109;27;20469;-33
2022/03/04 10:24:34;;;;;;;0.10;0.10;;;;;;;20.66;31.79;101719.41;5123449;27;20081;-32
2022/03/04 10:29:48;;;;;;;0.20;0.20;;;;;;;20.64;31.97;101718.00;5154263;27;20461;-31
2022/03/04 10:32:19;;;;;;;0.20;0.20;;;;;;;20.63;31.84;101722.69;5124102;27;20055;-29
2022/03/04 10:35:09;;;;;;;0.20;0.20;;;;;;;20.63;31.87;101722.69;5109400;27;20126;-28
2022/03/04 10:37:52;;;;;;;0.20;0.20;;;;;;;20.62;32.10;101721.03;5109181;27;20089;-29
2022/03/04 10:40:25;;;;;;;0.20;0.20;;;;;;;20.61;31.93;101719.38;5120169;27;20039;-29
2022/03/04 10:42:53;;;;;;;0.20;0.20;;;;;;;20.61;32.08;101721.34;5133975;27;20645;-29
2022/03/04 10:45:24;;;;;;;0.20;0.20;;;;;;;20.59;31.98;101704.97;5102384;27;20043;-31
2022/03/04 10:47:54;;;;;;;0.20;0.20;;;;;;;20.58;31.88;101708.03;5118658;27;20753;-30
2022/03/04 10:50:45;;;;;;;0.10;0.10;;;;;;;20.59;32.38;101704.97;5129872;27;20049;-28
2022/03/04 10:56:02;;;;;;;0.20;0.20;;;;;;;20.52;30.62;101712.72;5155844;27;20121;-32
2022/03/04 10:58:35;;;;;;;0.20;0.20;;;;;;;20.57;30.69;101706.38;5131264;27;20450;-31
2022/03/04 11:01:08;;;;;;;0.20;0.20;;;;;;;20.57;30.97;101711.91;5110610;27;20082;-33
2022/03/04 11:03:34;;;;;;;0.20;0.20;;;;;;;20.57;31.43;101711.91;5135608;27;20039;-31
2022/03/04 11:06:02;;;;;;;0.20;0.20;;;;;;;20.57;31.51;101696.13;5130716;27;20366;-31
2022/03/04 11:08:28;;;;;;;0.10;0.10;;;;;;;20.57;31.29;101707.19;5113119;27;20186;-31
2022/03/04 11:10:59;;;;;;;0.20;0.20;;;;;;;20.58;31.43;101699.72;5131448;27;20059;-32
2022/03/04 11:13:25;;;;;;;0.20;0.20;;;;;;;20.59;31.43;101709.69;5097111;27;20301;-31
2022/03/04 11:15:52;;;;;;;0.20;0.20;;;;;;;20.59;31.53;101704.16;5110754;27;20280;-32
2022/03/04 11:18:20;;;;;;;0.20;0.20;;;;;;;20.58;31.70;101708.84;5115081;27;20096;-32
2022/03/04 11:20:48;;;;;;;0.10;0.10;;;;;;;20.60;31.45;101705.84;5127309;27;20493;-31
2022/03/04 11:23:21;;;;;;;0.20;0.20;;;;;;;20.59;31.52;101707.75;5115154;27;20108;-32
2022/03/04 11:25:57;;;;;;;0.20;0.20;;;;;;;20.60;31.51;101705.84;5108909;27;20078;-32
2022/03/04 11:28:27;;;;;;;0.20;0.20;;;;;;;20.60;31.60;101709.44;5116097;27;20071;-32
2022/03/04 11:31:00;;;;;;;0.20;0.20;;;;;;;20.61;31.65;101704.72;5126942;27;20051;-32
2022/03/04 11:33:29;;;;;;;0.20;0.20;;;;;;;20.60;31.78;101695.59;5099194;27;20082;-33